sensor_id;sensor_type;location;lat;lon;timestamp;P1;durP1;ratioP1;P2;durP2;ratioP2
74799;SDS011;63326;45.088;7.658;2023-05-19T00:02:01;9.10;;;4.68;;
74799;SDS011;63326;45.088;7.658;2023-05-19T00:04:35;7.40;;;5.28;;
74799;SDS011;63326;45.088;7.658;2023-05-19T00:07:02;7.00;;;5.60;;
74799;SDS011;63326;45.088;7.658;2023-05-19T00:09:31;7.55;;;4.95;;
74799;SDS011;63326;45.088;7.658;2023-05-19T00:11:58;9.30;;;5.18;;
74799;SDS011;63326;45.088;7.658;2023-05-19T00:14:25;14.25;;;5.63;;
74799;SDS011;63326;45.088;7.658;2023-05-19T00:16:52;13.18;;;5.70;;
74799;SDS011;63326;45.088;7.658;2023-05-19T00:19:21;8.73;;;5.70;;
74799;SDS011;63326;45.088;7.658;2023-05-19T00:21:50;7.68;;;5.32;;
74799;SDS011;63326;45.088;7.658;2023-05-19T00:24:16;12.43;;;4.40;;
74799;SDS011;63326;45.088;7.658;2023-05-19T00:26:43;7.75;;;4.93;;
74799;SDS011;63326;45.088;7.658;2023-05-19T00:29:10;7.32;;;4.38;;
74799;SDS011;63326;45.088;7.658;2023-05-19T00:31:46;8.75;;;5.95;;
74799;SDS011;63326;45.088;7.658;2023-05-19T00:34:13;8.20;;;4.95;;
74799;SDS011;63326;45.088;7.658;2023-05-19T00:36:41;10.40;;;5.40;;
74799;SDS011;63326;45.088;7.658;2023-05-19T00:39:08;8.27;;;5.85;;
74799;SDS011;63326;45.088;7.658;2023-05-19T00:41:35;7.03;;;4.70;;
74799;SDS011;63326;45.088;7.658;2023-05-19T00:44:02;8.00;;;4.55;;
74799;SDS011;63326;45.088;7.658;2023-05-19T00:46:29;9.68;;;5.28;;
74799;SDS011;63326;45.088;7.658;2023-05-19T00:48:56;7.75;;;4.78;;
74799;SDS011;63326;45.088;7.658;2023-05-19T00:51:26;10.02;;;5.80;;
74799;SDS011;63326;45.088;7.658;2023-05-19T00:53:59;12.23;;;5.00;;
74799;SDS011;63326;45.088;7.658;2023-05-19T00:56:26;7.53;;;4.47;;
74799;SDS011;63326;45.088;7.658;2023-05-19T00:58:58;9.60;;;4.50;;
74799;SDS011;63326;45.088;7.658;2023-05-19T01:01:26;7.80;;;5.00;;
74799;SDS011;63326;45.088;7.658;2023-05-19T01:03:53;9.77;;;5.63;;
74799;SDS011;63326;45.088;7.658;2023-05-19T01:06:24;9.75;;;6.07;;
74799;SDS011;63326;45.088;7.658;2023-05-19T01:08:55;8.75;;;4.97;;
74799;SDS011;63326;45.088;7.658;2023-05-19T01:11:22;8.43;;;4.93;;
74799;SDS011;63326;45.088;7.658;2023-05-19T01:13:49;8.75;;;4.95;;
74799;SDS011;63326;45.088;7.658;2023-05-19T01:26:52;11.48;;;6.18;;
74799;SDS011;63326;45.088;7.658;2023-05-19T01:32:42;7.63;;;4.72;;
74799;SDS011;63326;45.088;7.658;2023-05-19T01:35:10;8.73;;;6.20;;
74799;SDS011;63326;45.088;7.658;2023-05-19T01:37:40;9.02;;;6.07;;
74799;SDS011;63326;45.088;7.658;2023-05-19T01:42:36;8.20;;;5.28;;
74799;SDS011;63326;45.088;7.658;2023-05-19T01:45:05;9.90;;;5.28;;
74799;SDS011;63326;45.088;7.658;2023-05-19T01:47:37;11.05;;;6.60;;
74799;SDS011;63326;45.088;7.658;2023-05-19T01:50:07;9.52;;;6.18;;
74799;SDS011;63326;45.088;7.658;2023-05-19T01:52:35;8.00;;;5.72;;
74799;SDS011;63326;45.088;7.658;2023-05-19T01:55:02;11.27;;;5.57;;
74799;SDS011;63326;45.088;7.658;2023-05-19T02:05:48;8.10;;;5.57;;
74799;SDS011;63326;45.088;7.658;2023-05-19T02:08:35;10.50;;;6.90;;
74799;SDS011;63326;45.088;7.658;2023-05-19T02:11:21;10.25;;;6.85;;
74799;SDS011;63326;45.088;7.658;2023-05-19T02:13:53;8.95;;;5.80;;
74799;SDS011;63326;45.088;7.658;2023-05-19T02:16:24;10.80;;;7.20;;
74799;SDS011;63326;45.088;7.658;2023-05-19T02:18:54;11.48;;;5.47;;
74799;SDS011;63326;45.088;7.658;2023-05-19T02:23:49;10.63;;;5.70;;
74799;SDS011;63326;45.088;7.658;2023-05-19T02:26:18;12.75;;;6.80;;
74799;SDS011;63326;45.088;7.658;2023-05-19T02:28:45;17.50;;;10.32;;
74799;SDS011;63326;45.088;7.658;2023-05-19T02:31:23;13.20;;;7.20;;
74799;SDS011;63326;45.088;7.658;2023-05-19T02:33:50;12.60;;;8.60;;
74799;SDS011;63326;45.088;7.658;2023-05-19T02:36:16;14.07;;;8.38;;
74799;SDS011;63326;45.088;7.658;2023-05-19T02:38:44;15.75;;;7.63;;
74799;SDS011;63326;45.088;7.658;2023-05-19T02:41:11;14.20;;;9.50;;
74799;SDS011;63326;45.088;7.658;2023-05-19T02:43:38;8.77;;;6.97;;
74799;SDS011;63326;45.088;7.658;2023-05-19T02:46:04;14.98;;;7.25;;
74799;SDS011;63326;45.088;7.658;2023-05-19T02:48:31;17.85;;;7.95;;
74799;SDS011;63326;45.088;7.658;2023-05-19T02:50:58;15.73;;;9.07;;
74799;SDS011;63326;45.088;7.658;2023-05-19T02:53:25;12.27;;;8.45;;
74799;SDS011;63326;45.088;7.658;2023-05-19T02:55:52;13.77;;;8.35;;
74799;SDS011;63326;45.088;7.658;2023-05-19T02:58:19;13.48;;;7.85;;
74799;SDS011;63326;45.088;7.658;2023-05-19T03:00:46;10.68;;;6.72;;
74799;SDS011;63326;45.088;7.658;2023-05-19T03:03:13;11.93;;;7.10;;
74799;SDS011;63326;45.088;7.658;2023-05-19T03:05:41;12.25;;;6.55;;
74799;SDS011;63326;45.088;7.658;2023-05-19T03:08:08;10.00;;;5.43;;
74799;SDS011;63326;45.088;7.658;2023-05-19T03:10:35;13.80;;;6.25;;
74799;SDS011;63326;45.088;7.658;2023-05-19T03:13:02;9.75;;;4.82;;
74799;SDS011;63326;45.088;7.658;2023-05-19T03:15:28;11.45;;;5.03;;
74799;SDS011;63326;45.088;7.658;2023-05-19T03:17:55;10.02;;;4.85;;
74799;SDS011;63326;45.088;7.658;2023-05-19T03:20:22;9.65;;;5.63;;
74799;SDS011;63326;45.088;7.658;2023-05-19T03:22:49;7.95;;;5.28;;
74799;SDS011;63326;45.088;7.658;2023-05-19T03:25:17;6.30;;;3.83;;
74799;SDS011;63326;45.088;7.658;2023-05-19T03:27:44;5.80;;;3.75;;
74799;SDS011;63326;45.088;7.658;2023-05-19T03:30:11;7.85;;;4.70;;
74799;SDS011;63326;45.088;7.658;2023-05-19T03:35:18;4.50;;;2.72;;
74799;SDS011;63326;45.088;7.658;2023-05-19T03:37:44;5.80;;;3.45;;
74799;SDS011;63326;45.088;7.658;2023-05-19T03:40:11;12.30;;;4.53;;
74799;SDS011;63326;45.088;7.658;2023-05-19T03:42:41;11.02;;;3.35;;
74799;SDS011;63326;45.088;7.658;2023-05-19T03:45:08;6.38;;;3.67;;
74799;SDS011;63326;45.088;7.658;2023-05-19T03:47:35;6.88;;;3.85;;
74799;SDS011;63326;45.088;7.658;2023-05-19T03:50:21;5.93;;;3.20;;
74799;SDS011;63326;45.088;7.658;2023-05-19T03:52:51;5.43;;;3.47;;
74799;SDS011;63326;45.088;7.658;2023-05-19T03:55:26;7.38;;;3.83;;
74799;SDS011;63326;45.088;7.658;2023-05-19T03:57:55;5.80;;;3.38;;
74799;SDS011;63326;45.088;7.658;2023-05-19T04:00:22;8.35;;;4.00;;
74799;SDS011;63326;45.088;7.658;2023-05-19T04:02:49;5.63;;;3.40;;
74799;SDS011;63326;45.088;7.658;2023-05-19T04:05:16;6.10;;;3.42;;
74799;SDS011;63326;45.088;7.658;2023-05-19T04:07:43;6.40;;;3.70;;
74799;SDS011;63326;45.088;7.658;2023-05-19T04:10:11;6.38;;;3.80;;
74799;SDS011;63326;45.088;7.658;2023-05-19T04:12:39;6.97;;;4.50;;
74799;SDS011;63326;45.088;7.658;2023-05-19T04:15:06;6.88;;;4.47;;
74799;SDS011;63326;45.088;7.658;2023-05-19T04:17:33;7.55;;;3.58;;
74799;SDS011;63326;45.088;7.658;2023-05-19T04:20:00;5.88;;;3.70;;
74799;SDS011;63326;45.088;7.658;2023-05-19T04:22:27;5.72;;;3.08;;
74799;SDS011;63326;45.088;7.658;2023-05-19T04:24:53;7.72;;;3.67;;
74799;SDS011;63326;45.088;7.658;2023-05-19T04:27:22;6.20;;;3.22;;
74799;SDS011;63326;45.088;7.658;2023-05-19T04:29:49;6.38;;;3.85;;
74799;SDS011;63326;45.088;7.658;2023-05-19T04:32:16;5.55;;;2.83;;
74799;SDS011;63326;45.088;7.658;2023-05-19T04:34:43;7.25;;;3.65;;
74799;SDS011;63326;45.088;7.658;2023-05-19T04:37:16;5.38;;;3.08;;
74799;SDS011;63326;45.088;7.658;2023-05-19T04:39:43;6.55;;;3.58;;
74799;SDS011;63326;45.088;7.658;2023-05-19T04:42:11;6.90;;;4.32;;
74799;SDS011;63326;45.088;7.658;2023-05-19T04:44:38;6.82;;;3.88;;
74799;SDS011;63326;45.088;7.658;2023-05-19T04:47:07;5.30;;;3.17;;
74799;SDS011;63326;45.088;7.658;2023-05-19T04:49:34;7.63;;;4.88;;
74799;SDS011;63326;45.088;7.658;2023-05-19T04:52:08;7.43;;;3.92;;
74799;SDS011;63326;45.088;7.658;2023-05-19T04:54:37;5.95;;;3.22;;
74799;SDS011;63326;45.088;7.658;2023-05-19T04:57:05;6.78;;;3.20;;
74799;SDS011;63326;45.088;7.658;2023-05-19T04:59:35;6.00;;;2.95;;
74799;SDS011;63326;45.088;7.658;2023-05-19T05:02:05;5.53;;;3.25;;
74799;SDS011;63326;45.088;7.658;2023-05-19T05:04:34;5.45;;;2.78;;
74799;SDS011;63326;45.088;7.658;2023-05-19T05:07:01;4.47;;;2.65;;
74799;SDS011;63326;45.088;7.658;2023-05-19T05:09:28;5.25;;;2.72;;
74799;SDS011;63326;45.088;7.658;2023-05-19T05:11:59;4.30;;;2.30;;
74799;SDS011;63326;45.088;7.658;2023-05-19T05:14:27;3.67;;;2.10;;
74799;SDS011;63326;45.088;7.658;2023-05-19T05:16:54;6.30;;;2.70;;
74799;SDS011;63326;45.088;7.658;2023-05-19T05:19:24;4.35;;;2.47;;
74799;SDS011;63326;45.088;7.658;2023-05-19T05:21:52;3.22;;;2.10;;
74799;SDS011;63326;45.088;7.658;2023-05-19T05:24:19;4.93;;;2.78;;
74799;SDS011;63326;45.088;7.658;2023-05-19T05:26:51;3.80;;;2.00;;
74799;SDS011;63326;45.088;7.658;2023-05-19T05:29:19;3.83;;;2.35;;
74799;SDS011;63326;45.088;7.658;2023-05-19T05:31:46;4.78;;;2.00;;
74799;SDS011;63326;45.088;7.658;2023-05-19T05:34:13;4.15;;;2.28;;
74799;SDS011;63326;45.088;7.658;2023-05-19T05:36:41;3.25;;;2.10;;
74799;SDS011;63326;45.088;7.658;2023-05-19T05:39:08;5.72;;;2.45;;
74799;SDS011;63326;45.088;7.658;2023-05-19T05:41:36;3.45;;;2.08;;
74799;SDS011;63326;45.088;7.658;2023-05-19T05:44:09;3.58;;;2.05;;
74799;SDS011;63326;45.088;7.658;2023-05-19T05:46:38;6.45;;;2.97;;
74799;SDS011;63326;45.088;7.658;2023-05-19T05:49:05;3.70;;;2.10;;
74799;SDS011;63326;45.088;7.658;2023-05-19T05:51:32;4.28;;;2.30;;
74799;SDS011;63326;45.088;7.658;2023-05-19T05:54:01;4.75;;;1.85;;
74799;SDS011;63326;45.088;7.658;2023-05-19T05:56:35;3.88;;;2.53;;
74799;SDS011;63326;45.088;7.658;2023-05-19T05:59:05;3.83;;;1.98;;
74799;SDS011;63326;45.088;7.658;2023-05-19T06:01:32;3.33;;;1.88;;
74799;SDS011;63326;45.088;7.658;2023-05-19T06:04:03;3.10;;;1.75;;
74799;SDS011;63326;45.088;7.658;2023-05-19T06:06:30;5.57;;;2.05;;
74799;SDS011;63326;45.088;7.658;2023-05-19T06:08:59;4.47;;;2.97;;
74799;SDS011;63326;45.088;7.658;2023-05-19T06:11:27;3.03;;;1.60;;
74799;SDS011;63326;45.088;7.658;2023-05-19T06:13:56;10.55;;;1.98;;
74799;SDS011;63326;45.088;7.658;2023-05-19T06:16:55;1.73;;;1.13;;
74799;SDS011;63326;45.088;7.658;2023-05-19T06:19:22;1.92;;;1.35;;
74799;SDS011;63326;45.088;7.658;2023-05-19T06:21:51;2.53;;;1.38;;
74799;SDS011;63326;45.088;7.658;2023-05-19T06:24:17;3.15;;;1.70;;
74799;SDS011;63326;45.088;7.658;2023-05-19T06:26:45;3.35;;;1.38;;
74799;SDS011;63326;45.088;7.658;2023-05-19T06:31:40;4.82;;;1.67;;
74799;SDS011;63326;45.088;7.658;2023-05-19T06:34:09;3.97;;;1.67;;
74799;SDS011;63326;45.088;7.658;2023-05-19T06:36:38;3.08;;;1.48;;
74799;SDS011;63326;45.088;7.658;2023-05-19T06:39:07;2.00;;;1.27;;
74799;SDS011;63326;45.088;7.658;2023-05-19T06:41:34;2.97;;;1.60;;
74799;SDS011;63326;45.088;7.658;2023-05-19T06:44:02;3.40;;;1.80;;
74799;SDS011;63326;45.088;7.658;2023-05-19T06:46:31;3.47;;;2.00;;
74799;SDS011;63326;45.088;7.658;2023-05-19T06:48:58;2.90;;;1.33;;
74799;SDS011;63326;45.088;7.658;2023-05-19T06:51:29;3.38;;;1.77;;
74799;SDS011;63326;45.088;7.658;2023-05-19T06:53:59;3.25;;;1.52;;
74799;SDS011;63326;45.088;7.658;2023-05-19T06:56:27;3.30;;;1.73;;
74799;SDS011;63326;45.088;7.658;2023-05-19T06:58:54;2.80;;;1.63;;
74799;SDS011;63326;45.088;7.658;2023-05-19T07:01:25;2.85;;;1.55;;
74799;SDS011;63326;45.088;7.658;2023-05-19T07:03:54;3.50;;;1.35;;
74799;SDS011;63326;45.088;7.658;2023-05-19T07:06:21;3.65;;;1.40;;
74799;SDS011;63326;45.088;7.658;2023-05-19T07:11:17;2.60;;;1.50;;
74799;SDS011;63326;45.088;7.658;2023-05-19T07:13:43;3.78;;;2.10;;
74799;SDS011;63326;45.088;7.658;2023-05-19T07:16:12;4.85;;;1.95;;
74799;SDS011;63326;45.088;7.658;2023-05-19T07:18:39;10.52;;;2.38;;
74799;SDS011;63326;45.088;7.658;2023-05-19T07:21:06;3.67;;;1.92;;
74799;SDS011;63326;45.088;7.658;2023-05-19T07:23:33;5.78;;;2.22;;
74799;SDS011;63326;45.088;7.658;2023-05-19T07:26:00;4.75;;;1.77;;
74799;SDS011;63326;45.088;7.658;2023-05-19T07:28:26;5.65;;;2.20;;
74799;SDS011;63326;45.088;7.658;2023-05-19T07:30:53;5.22;;;2.17;;
74799;SDS011;63326;45.088;7.658;2023-05-19T07:33:20;4.47;;;2.13;;
74799;SDS011;63326;45.088;7.658;2023-05-19T07:35:46;3.38;;;1.88;;
74799;SDS011;63326;45.088;7.658;2023-05-19T07:38:13;3.83;;;1.75;;
74799;SDS011;63326;45.088;7.658;2023-05-19T07:40:40;3.40;;;1.67;;
74799;SDS011;63326;45.088;7.658;2023-05-19T07:43:07;3.15;;;1.85;;
74799;SDS011;63326;45.088;7.658;2023-05-19T07:45:33;4.20;;;2.13;;
74799;SDS011;63326;45.088;7.658;2023-05-19T07:48:00;4.22;;;1.83;;
74799;SDS011;63326;45.088;7.658;2023-05-19T07:50:27;3.60;;;1.67;;
74799;SDS011;63326;45.088;7.658;2023-05-19T07:52:54;3.10;;;1.60;;
74799;SDS011;63326;45.088;7.658;2023-05-19T07:57:48;4.32;;;1.95;;
74799;SDS011;63326;45.088;7.658;2023-05-19T08:00:16;3.28;;;2.17;;
74799;SDS011;63326;45.088;7.658;2023-05-19T08:02:43;3.53;;;1.52;;
74799;SDS011;63326;45.088;7.658;2023-05-19T08:05:10;2.95;;;1.67;;
74799;SDS011;63326;45.088;7.658;2023-05-19T08:07:37;2.88;;;1.70;;
74799;SDS011;63326;45.088;7.658;2023-05-19T08:10:04;4.07;;;2.30;;
74799;SDS011;63326;45.088;7.658;2023-05-19T08:12:31;5.82;;;2.10;;
74799;SDS011;63326;45.088;7.658;2023-05-19T08:14:57;6.03;;;2.53;;
74799;SDS011;63326;45.088;7.658;2023-05-19T08:17:26;5.80;;;2.30;;
74799;SDS011;63326;45.088;7.658;2023-05-19T08:19:53;2.95;;;1.50;;
74799;SDS011;63326;45.088;7.658;2023-05-19T08:22:20;3.10;;;1.92;;
74799;SDS011;63326;45.088;7.658;2023-05-19T08:24:47;3.95;;;2.25;;
74799;SDS011;63326;45.088;7.658;2023-05-19T08:27:15;4.75;;;2.28;;
74799;SDS011;63326;45.088;7.658;2023-05-19T08:29:41;3.28;;;1.77;;
74799;SDS011;63326;45.088;7.658;2023-05-19T08:32:08;3.58;;;2.13;;
74799;SDS011;63326;45.088;7.658;2023-05-19T08:34:38;3.53;;;1.77;;
74799;SDS011;63326;45.088;7.658;2023-05-19T08:37:05;3.45;;;1.67;;
74799;SDS011;63326;45.088;7.658;2023-05-19T08:39:32;2.63;;;1.83;;
74799;SDS011;63326;45.088;7.658;2023-05-19T08:42:00;4.10;;;1.85;;
74799;SDS011;63326;45.088;7.658;2023-05-19T08:44:27;3.60;;;1.67;;
74799;SDS011;63326;45.088;7.658;2023-05-19T08:46:56;3.13;;;1.50;;
74799;SDS011;63326;45.088;7.658;2023-05-19T08:49:28;2.95;;;1.70;;
74799;SDS011;63326;45.088;7.658;2023-05-19T08:52:07;2.72;;;1.30;;
74799;SDS011;63326;45.088;7.658;2023-05-19T08:54:45;4.38;;;1.33;;
74799;SDS011;63326;45.088;7.658;2023-05-19T08:57:18;2.97;;;1.52;;
74799;SDS011;63326;45.088;7.658;2023-05-19T08:59:47;2.80;;;1.40;;
74799;SDS011;63326;45.088;7.658;2023-05-19T09:02:16;2.00;;;1.27;;
74799;SDS011;63326;45.088;7.658;2023-05-19T09:04:43;3.25;;;1.52;;
74799;SDS011;63326;45.088;7.658;2023-05-19T09:07:13;3.22;;;1.40;;
74799;SDS011;63326;45.088;7.658;2023-05-19T09:12:09;3.70;;;1.45;;
74799;SDS011;63326;45.088;7.658;2023-05-19T09:14:37;2.45;;;1.40;;
74799;SDS011;63326;45.088;7.658;2023-05-19T09:17:04;3.45;;;1.42;;
74799;SDS011;63326;45.088;7.658;2023-05-19T09:19:31;1.77;;;1.00;;
74799;SDS011;63326;45.088;7.658;2023-05-19T09:21:59;2.38;;;1.20;;
74799;SDS011;63326;45.088;7.658;2023-05-19T09:24:26;2.47;;;1.15;;
74799;SDS011;63326;45.088;7.658;2023-05-19T09:26:54;2.55;;;1.30;;
74799;SDS011;63326;45.088;7.658;2023-05-19T09:29:25;2.97;;;1.60;;
74799;SDS011;63326;45.088;7.658;2023-05-19T09:31:53;3.35;;;1.25;;
74799;SDS011;63326;45.088;7.658;2023-05-19T09:34:25;3.75;;;2.00;;
74799;SDS011;63326;45.088;7.658;2023-05-19T09:36:53;3.70;;;1.80;;
74799;SDS011;63326;45.088;7.658;2023-05-19T09:39:20;3.22;;;1.50;;
74799;SDS011;63326;45.088;7.658;2023-05-19T09:41:52;1.88;;;1.20;;
74799;SDS011;63326;45.088;7.658;2023-05-19T09:44:20;2.50;;;1.25;;
74799;SDS011;63326;45.088;7.658;2023-05-19T09:46:58;2.88;;;1.05;;
74799;SDS011;63326;45.088;7.658;2023-05-19T09:49:26;4.43;;;1.73;;
74799;SDS011;63326;45.088;7.658;2023-05-19T09:51:59;2.38;;;1.27;;
74799;SDS011;63326;45.088;7.658;2023-05-19T09:54:28;2.80;;;1.80;;
74799;SDS011;63326;45.088;7.658;2023-05-19T09:56:57;3.67;;;1.55;;
74799;SDS011;63326;45.088;7.658;2023-05-19T09:59:26;1.55;;;1.13;;
74799;SDS011;63326;45.088;7.658;2023-05-19T10:01:58;3.33;;;1.80;;
74799;SDS011;63326;45.088;7.658;2023-05-19T10:04:27;5.00;;;1.73;;
74799;SDS011;63326;45.088;7.658;2023-05-19T10:06:56;2.42;;;1.58;;
74799;SDS011;63326;45.088;7.658;2023-05-19T10:09:27;2.83;;;1.52;;
74799;SDS011;63326;45.088;7.658;2023-05-19T10:11:55;3.38;;;1.75;;
74799;SDS011;63326;45.088;7.658;2023-05-19T10:14:24;5.40;;;2.05;;
74799;SDS011;63326;45.088;7.658;2023-05-19T10:16:56;3.67;;;1.58;;
74799;SDS011;63326;45.088;7.658;2023-05-19T10:19:27;3.30;;;1.40;;
74799;SDS011;63326;45.088;7.658;2023-05-19T10:21:55;2.83;;;1.70;;
74799;SDS011;63326;45.088;7.658;2023-05-19T10:24:22;2.42;;;1.30;;
74799;SDS011;63326;45.088;7.658;2023-05-19T10:26:56;4.63;;;1.52;;
74799;SDS011;63326;45.088;7.658;2023-05-19T10:29:30;1.80;;;1.08;;
74799;SDS011;63326;45.088;7.658;2023-05-19T10:32:01;4.78;;;0.98;;
74799;SDS011;63326;45.088;7.658;2023-05-19T10:39:54;1.83;;;1.00;;
74799;SDS011;63326;45.088;7.658;2023-05-19T10:45:14;3.10;;;1.60;;
74799;SDS011;63326;45.088;7.658;2023-05-19T10:47:45;2.58;;;1.13;;
74799;SDS011;63326;45.088;7.658;2023-05-19T10:50:12;3.15;;;1.88;;
74799;SDS011;63326;45.088;7.658;2023-05-19T10:52:39;3.08;;;1.30;;
74799;SDS011;63326;45.088;7.658;2023-05-19T10:55:06;3.05;;;1.55;;
74799;SDS011;63326;45.088;7.658;2023-05-19T10:57:35;2.20;;;1.20;;
74799;SDS011;63326;45.088;7.658;2023-05-19T11:00:03;5.20;;;1.42;;
74799;SDS011;63326;45.088;7.658;2023-05-19T11:02:50;1.17;;;0.63;;
74799;SDS011;63326;45.088;7.658;2023-05-19T11:05:26;4.32;;;1.35;;
74799;SDS011;63326;45.088;7.658;2023-05-19T11:07:55;2.30;;;1.13;;
74799;SDS011;63326;45.088;7.658;2023-05-19T11:10:27;5.45;;;2.63;;
74799;SDS011;63326;45.088;7.658;2023-05-19T11:12:55;3.58;;;1.33;;
74799;SDS011;63326;45.088;7.658;2023-05-19T11:15:27;2.15;;;0.80;;
74799;SDS011;63326;45.088;7.658;2023-05-19T11:17:54;1.95;;;0.80;;
74799;SDS011;63326;45.088;7.658;2023-05-19T11:20:22;2.22;;;0.95;;
74799;SDS011;63326;45.088;7.658;2023-05-19T11:25:48;1.80;;;0.88;;
74799;SDS011;63326;45.088;7.658;2023-05-19T11:28:17;2.25;;;1.05;;
74799;SDS011;63326;45.088;7.658;2023-05-19T11:30:46;3.13;;;1.23;;
74799;SDS011;63326;45.088;7.658;2023-05-19T11:33:18;3.28;;;1.45;;
74799;SDS011;63326;45.088;7.658;2023-05-19T11:35:46;2.25;;;1.00;;
74799;SDS011;63326;45.088;7.658;2023-05-19T11:38:15;2.33;;;1.30;;
74799;SDS011;63326;45.088;7.658;2023-05-19T11:40:44;1.35;;;0.85;;
74799;SDS011;63326;45.088;7.658;2023-05-19T11:43:13;1.80;;;0.68;;
74799;SDS011;63326;45.088;7.658;2023-05-19T11:45:39;1.27;;;0.98;;
74799;SDS011;63326;45.088;7.658;2023-05-19T11:48:09;2.55;;;1.10;;
74799;SDS011;63326;45.088;7.658;2023-05-19T11:50:41;1.48;;;0.90;;
74799;SDS011;63326;45.088;7.658;2023-05-19T11:53:12;2.85;;;1.60;;
74799;SDS011;63326;45.088;7.658;2023-05-19T11:55:40;1.85;;;0.80;;
74799;SDS011;63326;45.088;7.658;2023-05-19T11:58:09;1.65;;;0.60;;
74799;SDS011;63326;45.088;7.658;2023-05-19T12:00:37;2.15;;;1.10;;
74799;SDS011;63326;45.088;7.658;2023-05-19T12:03:06;4.90;;;2.22;;
74799;SDS011;63326;45.088;7.658;2023-05-19T12:05:44;3.75;;;1.58;;
74799;SDS011;63326;45.088;7.658;2023-05-19T12:08:17;1.35;;;0.88;;
74799;SDS011;63326;45.088;7.658;2023-05-19T12:10:48;1.83;;;0.98;;
74799;SDS011;63326;45.088;7.658;2023-05-19T12:13:18;1.27;;;0.60;;
74799;SDS011;63326;45.088;7.658;2023-05-19T12:15:44;0.82;;;0.45;;
74799;SDS011;63326;45.088;7.658;2023-05-19T12:18:11;3.22;;;1.38;;
74799;SDS011;63326;45.088;7.658;2023-05-19T12:20:38;1.58;;;0.98;;
74799;SDS011;63326;45.088;7.658;2023-05-19T12:23:05;1.92;;;1.13;;
74799;SDS011;63326;45.088;7.658;2023-05-19T12:25:32;2.75;;;1.10;;
74799;SDS011;63326;45.088;7.658;2023-05-19T12:28:00;2.80;;;0.82;;
74799;SDS011;63326;45.088;7.658;2023-05-19T12:30:30;2.55;;;1.52;;
74799;SDS011;63326;45.088;7.658;2023-05-19T12:32:59;2.00;;;1.08;;
74799;SDS011;63326;45.088;7.658;2023-05-19T12:35:28;3.88;;;1.70;;
74799;SDS011;63326;45.088;7.658;2023-05-19T12:38:00;2.10;;;0.80;;
74799;SDS011;63326;45.088;7.658;2023-05-19T12:40:28;3.15;;;1.67;;
74799;SDS011;63326;45.088;7.658;2023-05-19T12:42:55;3.10;;;1.75;;
74799;SDS011;63326;45.088;7.658;2023-05-19T12:45:24;2.60;;;1.40;;
74799;SDS011;63326;45.088;7.658;2023-05-19T12:47:55;4.90;;;1.70;;
74799;SDS011;63326;45.088;7.658;2023-05-19T12:50:28;2.97;;;1.77;;
74799;SDS011;63326;45.088;7.658;2023-05-19T12:52:55;3.22;;;2.17;;
74799;SDS011;63326;45.088;7.658;2023-05-19T12:55:23;3.28;;;1.85;;
74799;SDS011;63326;45.088;7.658;2023-05-19T12:57:51;3.03;;;1.80;;
74799;SDS011;63326;45.088;7.658;2023-05-19T13:00:20;3.92;;;2.28;;
74799;SDS011;63326;45.088;7.658;2023-05-19T13:02:55;3.72;;;1.83;;
74799;SDS011;63326;45.088;7.658;2023-05-19T13:05:30;4.50;;;2.20;;
74799;SDS011;63326;45.088;7.658;2023-05-19T13:08:06;4.00;;;2.40;;
74799;SDS011;63326;45.088;7.658;2023-05-19T13:10:35;3.88;;;2.20;;
74799;SDS011;63326;45.088;7.658;2023-05-19T13:13:04;10.38;;;2.35;;
74799;SDS011;63326;45.088;7.658;2023-05-19T13:15:32;4.35;;;2.13;;
74799;SDS011;63326;45.088;7.658;2023-05-19T13:18:01;5.18;;;2.60;;
74799;SDS011;63326;45.088;7.658;2023-05-19T13:20:31;3.22;;;1.73;;
74799;SDS011;63326;45.088;7.658;2023-05-19T13:23:00;4.57;;;2.13;;
74799;SDS011;63326;45.088;7.658;2023-05-19T13:25:28;5.18;;;2.50;;
74799;SDS011;63326;45.088;7.658;2023-05-19T13:27:55;5.10;;;2.17;;
74799;SDS011;63326;45.088;7.658;2023-05-19T13:30:22;4.75;;;2.15;;
74799;SDS011;63326;45.088;7.658;2023-05-19T13:32:49;4.85;;;2.15;;
74799;SDS011;63326;45.088;7.658;2023-05-19T13:35:18;3.63;;;2.00;;
74799;SDS011;63326;45.088;7.658;2023-05-19T13:37:45;4.18;;;2.03;;
74799;SDS011;63326;45.088;7.658;2023-05-19T13:40:12;4.55;;;1.98;;
74799;SDS011;63326;45.088;7.658;2023-05-19T13:42:41;3.70;;;2.40;;
74799;SDS011;63326;45.088;7.658;2023-05-19T13:45:08;4.03;;;2.30;;
74799;SDS011;63326;45.088;7.658;2023-05-19T13:47:36;4.00;;;2.05;;
74799;SDS011;63326;45.088;7.658;2023-05-19T13:50:04;4.57;;;2.10;;
74799;SDS011;63326;45.088;7.658;2023-05-19T13:52:31;5.57;;;1.67;;
74799;SDS011;63326;45.088;7.658;2023-05-19T13:54:58;4.05;;;1.95;;
74799;SDS011;63326;45.088;7.658;2023-05-19T13:57:25;5.20;;;1.90;;
74799;SDS011;63326;45.088;7.658;2023-05-19T13:59:53;5.05;;;1.83;;
74799;SDS011;63326;45.088;7.658;2023-05-19T14:02:38;4.65;;;1.65;;
74799;SDS011;63326;45.088;7.658;2023-05-19T14:05:05;4.28;;;2.90;;
74799;SDS011;63326;45.088;7.658;2023-05-19T14:07:32;4.22;;;2.33;;
74799;SDS011;63326;45.088;7.658;2023-05-19T14:10:02;3.15;;;1.90;;
74799;SDS011;63326;45.088;7.658;2023-05-19T14:12:31;5.25;;;2.47;;
74799;SDS011;63326;45.088;7.658;2023-05-19T14:15:17;4.97;;;2.30;;
74799;SDS011;63326;45.088;7.658;2023-05-19T14:17:44;5.28;;;2.72;;
74799;SDS011;63326;45.088;7.658;2023-05-19T14:20:11;4.43;;;2.45;;
74799;SDS011;63326;45.088;7.658;2023-05-19T14:22:38;4.38;;;2.42;;
74799;SDS011;63326;45.088;7.658;2023-05-19T14:25:05;3.78;;;1.70;;
74799;SDS011;63326;45.088;7.658;2023-05-19T14:27:32;4.90;;;2.45;;
74799;SDS011;63326;45.088;7.658;2023-05-19T14:29:59;5.32;;;2.33;;
74799;SDS011;63326;45.088;7.658;2023-05-19T14:32:26;5.05;;;2.45;;
74799;SDS011;63326;45.088;7.658;2023-05-19T14:34:55;4.00;;;2.38;;
74799;SDS011;63326;45.088;7.658;2023-05-19T14:37:22;3.50;;;1.77;;
74799;SDS011;63326;45.088;7.658;2023-05-19T14:39:49;6.75;;;2.38;;
74799;SDS011;63326;45.088;7.658;2023-05-19T14:42:16;2.25;;;1.40;;
74799;SDS011;63326;45.088;7.658;2023-05-19T14:44:42;4.45;;;1.90;;
74799;SDS011;63326;45.088;7.658;2023-05-19T14:47:09;4.47;;;2.47;;
74799;SDS011;63326;45.088;7.658;2023-05-19T14:49:37;3.55;;;2.00;;
74799;SDS011;63326;45.088;7.658;2023-05-19T14:52:04;4.18;;;2.25;;
74799;SDS011;63326;45.088;7.658;2023-05-19T14:54:31;3.83;;;2.00;;
74799;SDS011;63326;45.088;7.658;2023-05-19T14:56:59;3.75;;;2.05;;
74799;SDS011;63326;45.088;7.658;2023-05-19T15:01:54;2.40;;;1.33;;
74799;SDS011;63326;45.088;7.658;2023-05-19T15:04:21;4.65;;;2.03;;
74799;SDS011;63326;45.088;7.658;2023-05-19T15:06:48;4.45;;;1.50;;
74799;SDS011;63326;45.088;7.658;2023-05-19T15:09:30;2.88;;;1.75;;
74799;SDS011;63326;45.088;7.658;2023-05-19T15:11:57;3.75;;;1.83;;
74799;SDS011;63326;45.088;7.658;2023-05-19T15:14:26;4.70;;;3.03;;
74799;SDS011;63326;45.088;7.658;2023-05-19T15:16:56;3.92;;;1.42;;
74799;SDS011;63326;45.088;7.658;2023-05-19T15:19:22;2.65;;;1.73;;
74799;SDS011;63326;45.088;7.658;2023-05-19T15:21:49;2.72;;;1.60;;
74799;SDS011;63326;45.088;7.658;2023-05-19T15:24:16;3.78;;;1.67;;
74799;SDS011;63326;45.088;7.658;2023-05-19T15:26:43;4.18;;;2.00;;
74799;SDS011;63326;45.088;7.658;2023-05-19T15:29:10;2.70;;;1.65;;
74799;SDS011;63326;45.088;7.658;2023-05-19T15:31:37;3.13;;;1.80;;
74799;SDS011;63326;45.088;7.658;2023-05-19T15:34:04;4.43;;;1.95;;
74799;SDS011;63326;45.088;7.658;2023-05-19T15:36:30;3.13;;;2.03;;
74799;SDS011;63326;45.088;7.658;2023-05-19T15:38:57;2.38;;;1.40;;
74799;SDS011;63326;45.088;7.658;2023-05-19T15:41:24;3.75;;;1.77;;
74799;SDS011;63326;45.088;7.658;2023-05-19T15:43:51;2.20;;;1.60;;
74799;SDS011;63326;45.088;7.658;2023-05-19T15:48:45;3.42;;;1.92;;
74799;SDS011;63326;45.088;7.658;2023-05-19T15:51:12;2.58;;;1.58;;